Terminal Aerodrome Forecast
Issued by NWS

Home | Current Version | Previous Version | Text Only | Print | Product List | Glossary On
Versions: 1 2 3 4 5 6 7 8 9 10 11 12 13 14 15 16 17 18 19 20 21 22 23 24 25 26 27 28 29 30 31 32 33 34 35 36 37 38 39 40
202
FTAK31 PANC 252331
TAFADL
TAF
PADL 252331Z 2600/2624 04007KT P6SM -SHRA SCT015 BKN040 OVC080
     FM260600 02007KT P6SM SCT040 BKN080
     FM261200 01006KT 5SM BR BKN015
     FM261800 04008KT P6SM VCSH SCT030 OVC050=

USA.gov is the U.S. government's official web portal to all federal, state and local government web resources and services.